sensor_id;sensor_type;location;lat;lon;timestamp;P1;durP1;ratioP1;P2;durP2;ratioP2
17570;SDS011;8903;52.220;20.978;2023-05-07T00:00:54;5.60;;;4.80;;
17570;SDS011;8903;52.220;20.978;2023-05-07T00:03:21;4.90;;;4.40;;
17570;SDS011;8903;52.220;20.978;2023-05-07T00:05:48;7.47;;;5.50;;
17570;SDS011;8903;52.220;20.978;2023-05-07T00:08:16;7.17;;;4.63;;
17570;SDS011;8903;52.220;20.978;2023-05-07T00:10:43;4.97;;;4.57;;
17570;SDS011;8903;52.220;20.978;2023-05-07T00:13:11;5.63;;;5.07;;
17570;SDS011;8903;52.220;20.978;2023-05-07T00:15:38;6.90;;;5.47;;
17570;SDS011;8903;52.220;20.978;2023-05-07T00:18:05;6.50;;;5.70;;
17570;SDS011;8903;52.220;20.978;2023-05-07T00:20:32;8.17;;;4.90;;
17570;SDS011;8903;52.220;20.978;2023-05-07T00:23:00;6.97;;;4.67;;
17570;SDS011;8903;52.220;20.978;2023-05-07T00:25:28;5.27;;;4.77;;
17570;SDS011;8903;52.220;20.978;2023-05-07T00:27:55;6.20;;;4.90;;
17570;SDS011;8903;52.220;20.978;2023-05-07T00:30:22;6.30;;;5.30;;
17570;SDS011;8903;52.220;20.978;2023-05-07T00:32:49;6.90;;;5.13;;
17570;SDS011;8903;52.220;20.978;2023-05-07T00:35:16;5.33;;;4.27;;
17570;SDS011;8903;52.220;20.978;2023-05-07T00:37:44;6.83;;;5.70;;
17570;SDS011;8903;52.220;20.978;2023-05-07T00:40:11;4.80;;;4.30;;
17570;SDS011;8903;52.220;20.978;2023-05-07T00:42:39;8.20;;;5.23;;
17570;SDS011;8903;52.220;20.978;2023-05-07T00:45:07;7.97;;;5.23;;
17570;SDS011;8903;52.220;20.978;2023-05-07T00:47:36;6.63;;;5.07;;
17570;SDS011;8903;52.220;20.978;2023-05-07T00:50:03;6.53;;;4.80;;
17570;SDS011;8903;52.220;20.978;2023-05-07T00:52:32;5.43;;;4.80;;
17570;SDS011;8903;52.220;20.978;2023-05-07T00:54:59;7.33;;;5.30;;
17570;SDS011;8903;52.220;20.978;2023-05-07T00:57:32;6.43;;;5.30;;
17570;SDS011;8903;52.220;20.978;2023-05-07T01:00:04;5.10;;;4.60;;
17570;SDS011;8903;52.220;20.978;2023-05-07T01:02:33;5.43;;;4.93;;
17570;SDS011;8903;52.220;20.978;2023-05-07T01:05:01;6.67;;;5.30;;
17570;SDS011;8903;52.220;20.978;2023-05-07T01:07:31;5.93;;;5.00;;
17570;SDS011;8903;52.220;20.978;2023-05-07T01:09:59;5.80;;;4.50;;
17570;SDS011;8903;52.220;20.978;2023-05-07T01:12:28;6.83;;;5.30;;
17570;SDS011;8903;52.220;20.978;2023-05-07T01:14:56;5.20;;;4.70;;
17570;SDS011;8903;52.220;20.978;2023-05-07T01:17:25;5.43;;;4.93;;
17570;SDS011;8903;52.220;20.978;2023-05-07T01:19:52;6.03;;;5.43;;
17570;SDS011;8903;52.220;20.978;2023-05-07T01:22:26;5.97;;;5.33;;
17570;SDS011;8903;52.220;20.978;2023-05-07T01:24:57;7.33;;;5.23;;
17570;SDS011;8903;52.220;20.978;2023-05-07T01:27:27;6.30;;;5.00;;
17570;SDS011;8903;52.220;20.978;2023-05-07T01:29:54;6.53;;;5.87;;
17570;SDS011;8903;52.220;20.978;2023-05-07T01:32:23;4.77;;;4.27;;
17570;SDS011;8903;52.220;20.978;2023-05-07T01:34:55;13.00;;;4.97;;
17570;SDS011;8903;52.220;20.978;2023-05-07T01:37:24;5.13;;;3.90;;
17570;SDS011;8903;52.220;20.978;2023-05-07T01:39:53;5.60;;;4.83;;
17570;SDS011;8903;52.220;20.978;2023-05-07T01:42:20;5.97;;;4.90;;
17570;SDS011;8903;52.220;20.978;2023-05-07T01:44:48;5.73;;;5.13;;
17570;SDS011;8903;52.220;20.978;2023-05-07T01:47:15;5.10;;;3.70;;
17570;SDS011;8903;52.220;20.978;2023-05-07T01:49:43;7.40;;;5.27;;
17570;SDS011;8903;52.220;20.978;2023-05-07T01:52:10;7.23;;;4.70;;
17570;SDS011;8903;52.220;20.978;2023-05-07T01:54:37;5.20;;;4.70;;
17570;SDS011;8903;52.220;20.978;2023-05-07T01:57:06;5.63;;;4.47;;
17570;SDS011;8903;52.220;20.978;2023-05-07T01:59:33;6.30;;;4.87;;
17570;SDS011;8903;52.220;20.978;2023-05-07T02:02:00;4.80;;;3.87;;
17570;SDS011;8903;52.220;20.978;2023-05-07T02:04:28;5.03;;;4.33;;
17570;SDS011;8903;52.220;20.978;2023-05-07T02:06:55;5.13;;;4.50;;
17570;SDS011;8903;52.220;20.978;2023-05-07T02:09:22;6.27;;;4.23;;
17570;SDS011;8903;52.220;20.978;2023-05-07T02:11:50;8.33;;;4.60;;
17570;SDS011;8903;52.220;20.978;2023-05-07T02:14:20;6.83;;;4.80;;
17570;SDS011;8903;52.220;20.978;2023-05-07T02:16:47;5.13;;;4.33;;
17570;SDS011;8903;52.220;20.978;2023-05-07T02:19:15;5.80;;;4.40;;
17570;SDS011;8903;52.220;20.978;2023-05-07T02:21:42;5.40;;;4.73;;
17570;SDS011;8903;52.220;20.978;2023-05-07T02:24:09;6.27;;;4.20;;
17570;SDS011;8903;52.220;20.978;2023-05-07T02:26:36;12.93;;;5.03;;
17570;SDS011;8903;52.220;20.978;2023-05-07T02:29:03;6.40;;;4.50;;
17570;SDS011;8903;52.220;20.978;2023-05-07T02:31:32;5.40;;;4.10;;
17570;SDS011;8903;52.220;20.978;2023-05-07T02:33:59;4.30;;;3.63;;
17570;SDS011;8903;52.220;20.978;2023-05-07T02:36:27;5.50;;;4.17;;
17570;SDS011;8903;52.220;20.978;2023-05-07T02:39:01;5.70;;;4.57;;
17570;SDS011;8903;52.220;20.978;2023-05-07T02:41:28;8.23;;;4.57;;
17570;SDS011;8903;52.220;20.978;2023-05-07T02:43:55;5.10;;;4.47;;
17570;SDS011;8903;52.220;20.978;2023-05-07T02:46:23;5.57;;;4.40;;
17570;SDS011;8903;52.220;20.978;2023-05-07T02:48:59;3.50;;;3.13;;
17570;SDS011;8903;52.220;20.978;2023-05-07T02:51:26;6.10;;;4.33;;
17570;SDS011;8903;52.220;20.978;2023-05-07T02:53:55;5.37;;;4.13;;
17570;SDS011;8903;52.220;20.978;2023-05-07T02:56:25;4.60;;;4.20;;
17570;SDS011;8903;52.220;20.978;2023-05-07T02:58:52;6.73;;;4.37;;
17570;SDS011;8903;52.220;20.978;2023-05-07T03:01:21;6.23;;;4.30;;
17570;SDS011;8903;52.220;20.978;2023-05-07T03:04:10;4.60;;;3.67;;
17570;SDS011;8903;52.220;20.978;2023-05-07T03:06:37;4.57;;;3.87;;
17570;SDS011;8903;52.220;20.978;2023-05-07T03:09:04;4.20;;;3.30;;
17570;SDS011;8903;52.220;20.978;2023-05-07T03:11:31;4.10;;;3.80;;
17570;SDS011;8903;52.220;20.978;2023-05-07T03:13:58;3.93;;;3.57;;
17570;SDS011;8903;52.220;20.978;2023-05-07T03:16:25;9.77;;;4.13;;
17570;SDS011;8903;52.220;20.978;2023-05-07T03:18:53;4.03;;;3.60;;
17570;SDS011;8903;52.220;20.978;2023-05-07T03:21:21;6.53;;;4.17;;
17570;SDS011;8903;52.220;20.978;2023-05-07T03:23:48;5.60;;;4.53;;
17570;SDS011;8903;52.220;20.978;2023-05-07T03:26:15;5.60;;;4.07;;
17570;SDS011;8903;52.220;20.978;2023-05-07T03:28:44;5.27;;;4.33;;
17570;SDS011;8903;52.220;20.978;2023-05-07T03:31:13;6.77;;;5.30;;
17570;SDS011;8903;52.220;20.978;2023-05-07T03:33:49;6.00;;;4.43;;
17570;SDS011;8903;52.220;20.978;2023-05-07T03:36:17;4.80;;;3.90;;
17570;SDS011;8903;52.220;20.978;2023-05-07T03:38:46;5.23;;;4.57;;
17570;SDS011;8903;52.220;20.978;2023-05-07T03:41:15;4.70;;;4.20;;
17570;SDS011;8903;52.220;20.978;2023-05-07T03:43:45;5.10;;;4.50;;
17570;SDS011;8903;52.220;20.978;2023-05-07T03:46:12;5.00;;;3.60;;
17570;SDS011;8903;52.220;20.978;2023-05-07T03:48:40;4.37;;;3.60;;
17570;SDS011;8903;52.220;20.978;2023-05-07T03:51:08;3.90;;;3.60;;
17570;SDS011;8903;52.220;20.978;2023-05-07T03:53:35;9.97;;;4.37;;
17570;SDS011;8903;52.220;20.978;2023-05-07T03:56:04;4.30;;;3.93;;
17570;SDS011;8903;52.220;20.978;2023-05-07T03:58:34;7.47;;;3.97;;
17570;SDS011;8903;52.220;20.978;2023-05-07T04:01:06;5.23;;;3.50;;
17570;SDS011;8903;52.220;20.978;2023-05-07T04:03:34;3.90;;;3.60;;
17570;SDS011;8903;52.220;20.978;2023-05-07T04:06:01;5.20;;;4.17;;
17570;SDS011;8903;52.220;20.978;2023-05-07T04:08:30;4.40;;;3.90;;
17570;SDS011;8903;52.220;20.978;2023-05-07T04:10:57;6.30;;;3.70;;
17570;SDS011;8903;52.220;20.978;2023-05-07T04:13:30;4.23;;;3.57;;
17570;SDS011;8903;52.220;20.978;2023-05-07T04:16:01;5.67;;;3.17;;
17570;SDS011;8903;52.220;20.978;2023-05-07T04:18:28;3.70;;;3.40;;
17570;SDS011;8903;52.220;20.978;2023-05-07T04:20:55;4.03;;;3.63;;
17570;SDS011;8903;52.220;20.978;2023-05-07T04:23:22;3.40;;;3.10;;
17570;SDS011;8903;52.220;20.978;2023-05-07T04:25:49;4.63;;;3.83;;
17570;SDS011;8903;52.220;20.978;2023-05-07T04:28:24;4.53;;;3.57;;
17570;SDS011;8903;52.220;20.978;2023-05-07T04:30:52;4.90;;;3.80;;
17570;SDS011;8903;52.220;20.978;2023-05-07T04:33:21;4.00;;;3.70;;
17570;SDS011;8903;52.220;20.978;2023-05-07T04:35:49;4.00;;;3.70;;
17570;SDS011;8903;52.220;20.978;2023-05-07T04:38:16;7.17;;;4.07;;
17570;SDS011;8903;52.220;20.978;2023-05-07T04:40:44;3.70;;;3.40;;
17570;SDS011;8903;52.220;20.978;2023-05-07T04:43:15;6.87;;;4.07;;
17570;SDS011;8903;52.220;20.978;2023-05-07T04:45:47;3.60;;;2.60;;
17570;SDS011;8903;52.220;20.978;2023-05-07T04:48:17;4.43;;;3.10;;
17570;SDS011;8903;52.220;20.978;2023-05-07T04:50:47;4.07;;;3.57;;
17570;SDS011;8903;52.220;20.978;2023-05-07T04:53:15;4.07;;;3.47;;
17570;SDS011;8903;52.220;20.978;2023-05-07T04:55:42;3.87;;;3.13;;
17570;SDS011;8903;52.220;20.978;2023-05-07T04:58:10;3.73;;;3.10;;
17570;SDS011;8903;52.220;20.978;2023-05-07T05:00:39;4.50;;;4.10;;
17570;SDS011;8903;52.220;20.978;2023-05-07T05:03:06;3.60;;;3.10;;
17570;SDS011;8903;52.220;20.978;2023-05-07T05:05:37;3.40;;;2.83;;
17570;SDS011;8903;52.220;20.978;2023-05-07T05:08:04;4.10;;;3.50;;
17570;SDS011;8903;52.220;20.978;2023-05-07T05:10:35;3.33;;;3.00;;
17570;SDS011;8903;52.220;20.978;2023-05-07T05:13:02;5.10;;;4.07;;
17570;SDS011;8903;52.220;20.978;2023-05-07T05:15:30;6.53;;;3.03;;
17570;SDS011;8903;52.220;20.978;2023-05-07T05:17:57;3.80;;;3.33;;
17570;SDS011;8903;52.220;20.978;2023-05-07T05:20:24;3.50;;;2.67;;
17570;SDS011;8903;52.220;20.978;2023-05-07T05:22:52;4.13;;;2.63;;
17570;SDS011;8903;52.220;20.978;2023-05-07T05:25:19;4.63;;;2.90;;
17570;SDS011;8903;52.220;20.978;2023-05-07T05:27:46;3.47;;;3.17;;
17570;SDS011;8903;52.220;20.978;2023-05-07T05:30:14;3.40;;;2.90;;
17570;SDS011;8903;52.220;20.978;2023-05-07T05:32:44;4.03;;;3.23;;
17570;SDS011;8903;52.220;20.978;2023-05-07T05:35:11;3.30;;;3.00;;
17570;SDS011;8903;52.220;20.978;2023-05-07T05:37:40;5.27;;;2.90;;
17570;SDS011;8903;52.220;20.978;2023-05-07T05:40:09;2.63;;;2.43;;
17570;SDS011;8903;52.220;20.978;2023-05-07T05:42:37;3.20;;;2.90;;
17570;SDS011;8903;52.220;20.978;2023-05-07T05:45:04;3.73;;;2.70;;
17570;SDS011;8903;52.220;20.978;2023-05-07T05:47:33;2.70;;;2.50;;
17570;SDS011;8903;52.220;20.978;2023-05-07T05:50:01;3.50;;;3.20;;
17570;SDS011;8903;52.220;20.978;2023-05-07T05:52:28;3.27;;;2.83;;
17570;SDS011;8903;52.220;20.978;2023-05-07T05:54:56;3.10;;;2.83;;
17570;SDS011;8903;52.220;20.978;2023-05-07T05:57:25;2.90;;;2.70;;
17570;SDS011;8903;52.220;20.978;2023-05-07T05:59:52;3.17;;;2.97;;
17570;SDS011;8903;52.220;20.978;2023-05-07T06:02:20;3.10;;;2.40;;
17570;SDS011;8903;52.220;20.978;2023-05-07T06:04:47;3.77;;;2.90;;
17570;SDS011;8903;52.220;20.978;2023-05-07T06:07:17;4.43;;;2.40;;
17570;SDS011;8903;52.220;20.978;2023-05-07T06:09:44;2.37;;;2.17;;
17570;SDS011;8903;52.220;20.978;2023-05-07T06:12:11;2.80;;;2.60;;
17570;SDS011;8903;52.220;20.978;2023-05-07T06:14:40;2.73;;;2.27;;
17570;SDS011;8903;52.220;20.978;2023-05-07T06:17:10;3.80;;;2.50;;
17570;SDS011;8903;52.220;20.978;2023-05-07T06:19:37;2.47;;;2.27;;
17570;SDS011;8903;52.220;20.978;2023-05-07T06:22:05;3.20;;;2.70;;
17570;SDS011;8903;52.220;20.978;2023-05-07T06:24:34;4.07;;;2.80;;
17570;SDS011;8903;52.220;20.978;2023-05-07T06:27:01;2.60;;;2.40;;
17570;SDS011;8903;52.220;20.978;2023-05-07T06:29:30;2.17;;;1.97;;
17570;SDS011;8903;52.220;20.978;2023-05-07T06:32:07;3.17;;;2.90;;
17570;SDS011;8903;52.220;20.978;2023-05-07T06:34:34;3.17;;;2.30;;
17570;SDS011;8903;52.220;20.978;2023-05-07T06:37:01;2.50;;;2.30;;
17570;SDS011;8903;52.220;20.978;2023-05-07T06:39:42;3.27;;;2.97;;
17570;SDS011;8903;52.220;20.978;2023-05-07T06:42:10;2.80;;;2.47;;
17570;SDS011;8903;52.220;20.978;2023-05-07T06:44:40;2.43;;;2.23;;
17570;SDS011;8903;52.220;20.978;2023-05-07T06:47:12;3.30;;;3.00;;
17570;SDS011;8903;52.220;20.978;2023-05-07T06:49:39;3.57;;;3.07;;
17570;SDS011;8903;52.220;20.978;2023-05-07T06:52:06;4.47;;;2.63;;
17570;SDS011;8903;52.220;20.978;2023-05-07T06:54:33;3.10;;;1.87;;
17570;SDS011;8903;52.220;20.978;2023-05-07T06:57:00;2.70;;;2.47;;
17570;SDS011;8903;52.220;20.978;2023-05-07T06:59:28;2.73;;;2.50;;
17570;SDS011;8903;52.220;20.978;2023-05-07T07:01:55;2.60;;;1.93;;
17570;SDS011;8903;52.220;20.978;2023-05-07T07:04:24;2.60;;;2.40;;
17570;SDS011;8903;52.220;20.978;2023-05-07T07:06:58;3.53;;;2.30;;
17570;SDS011;8903;52.220;20.978;2023-05-07T07:09:27;2.27;;;2.10;;
17570;SDS011;8903;52.220;20.978;2023-05-07T07:11:54;2.63;;;2.43;;
17570;SDS011;8903;52.220;20.978;2023-05-07T07:14:21;2.60;;;2.40;;
17570;SDS011;8903;52.220;20.978;2023-05-07T07:16:50;3.27;;;2.53;;
17570;SDS011;8903;52.220;20.978;2023-05-07T07:19:19;2.50;;;2.30;;
17570;SDS011;8903;52.220;20.978;2023-05-07T07:21:49;3.60;;;2.17;;
17570;SDS011;8903;52.220;20.978;2023-05-07T07:24:17;1.90;;;1.63;;
17570;SDS011;8903;52.220;20.978;2023-05-07T07:26:47;3.90;;;2.10;;
17570;SDS011;8903;52.220;20.978;2023-05-07T07:29:15;3.57;;;2.57;;
17570;SDS011;8903;52.220;20.978;2023-05-07T07:31:44;4.23;;;2.20;;
17570;SDS011;8903;52.220;20.978;2023-05-07T07:34:12;1.87;;;1.77;;
17570;SDS011;8903;52.220;20.978;2023-05-07T07:36:39;2.73;;;2.50;;
17570;SDS011;8903;52.220;20.978;2023-05-07T07:39:09;2.50;;;2.30;;
17570;SDS011;8903;52.220;20.978;2023-05-07T07:41:36;3.47;;;2.53;;
17570;SDS011;8903;52.220;20.978;2023-05-07T07:44:03;3.10;;;2.67;;
17570;SDS011;8903;52.220;20.978;2023-05-07T07:46:34;2.70;;;2.50;;
17570;SDS011;8903;52.220;20.978;2023-05-07T07:49:02;3.67;;;2.50;;
17570;SDS011;8903;52.220;20.978;2023-05-07T07:51:29;3.03;;;2.10;;
17570;SDS011;8903;52.220;20.978;2023-05-07T07:53:58;3.37;;;3.07;;
17570;SDS011;8903;52.220;20.978;2023-05-07T07:56:28;3.00;;;2.00;;
17570;SDS011;8903;52.220;20.978;2023-05-07T07:58:55;3.30;;;2.50;;
17570;SDS011;8903;52.220;20.978;2023-05-07T08:01:23;4.70;;;2.40;;
17570;SDS011;8903;52.220;20.978;2023-05-07T08:03:50;2.00;;;1.80;;
17570;SDS011;8903;52.220;20.978;2023-05-07T08:06:17;3.33;;;2.10;;
17570;SDS011;8903;52.220;20.978;2023-05-07T08:08:44;2.27;;;1.93;;
17570;SDS011;8903;52.220;20.978;2023-05-07T08:11:11;2.27;;;2.13;;
17570;SDS011;8903;52.220;20.978;2023-05-07T08:13:40;4.73;;;2.10;;
17570;SDS011;8903;52.220;20.978;2023-05-07T08:16:07;3.10;;;2.30;;
17570;SDS011;8903;52.220;20.978;2023-05-07T08:18:35;2.13;;;2.03;;
17570;SDS011;8903;52.220;20.978;2023-05-07T08:21:02;2.20;;;2.00;;
17570;SDS011;8903;52.220;20.978;2023-05-07T08:23:30;2.33;;;2.10;;
17570;SDS011;8903;52.220;20.978;2023-05-07T08:26:00;2.17;;;1.97;;
17570;SDS011;8903;52.220;20.978;2023-05-07T08:28:28;2.73;;;2.10;;
17570;SDS011;8903;52.220;20.978;2023-05-07T08:30:56;2.70;;;2.50;;
17570;SDS011;8903;52.220;20.978;2023-05-07T08:33:26;3.00;;;2.47;;
17570;SDS011;8903;52.220;20.978;2023-05-07T08:35:53;2.90;;;2.20;;
17570;SDS011;8903;52.220;20.978;2023-05-07T08:38:21;3.67;;;2.33;;
17570;SDS011;8903;52.220;20.978;2023-05-07T08:40:48;3.43;;;2.80;;
17570;SDS011;8903;52.220;20.978;2023-05-07T08:43:18;2.50;;;2.10;;
17570;SDS011;8903;52.220;20.978;2023-05-07T08:45:45;3.77;;;2.73;;
17570;SDS011;8903;52.220;20.978;2023-05-07T08:48:22;2.80;;;2.40;;
17570;SDS011;8903;52.220;20.978;2023-05-07T08:51:02;2.63;;;2.43;;
17570;SDS011;8903;52.220;20.978;2023-05-07T08:53:30;2.27;;;2.07;;
17570;SDS011;8903;52.220;20.978;2023-05-07T08:55:58;2.87;;;2.50;;
17570;SDS011;8903;52.220;20.978;2023-05-07T08:58:28;2.40;;;2.07;;
17570;SDS011;8903;52.220;20.978;2023-05-07T09:00:55;2.50;;;1.90;;
17570;SDS011;8903;52.220;20.978;2023-05-07T09:03:24;2.60;;;2.10;;
17570;SDS011;8903;52.220;20.978;2023-05-07T09:05:54;2.17;;;1.97;;
17570;SDS011;8903;52.220;20.978;2023-05-07T09:08:24;2.10;;;2.00;;
17570;SDS011;8903;52.220;20.978;2023-05-07T09:10:53;1.90;;;1.77;;
17570;SDS011;8903;52.220;20.978;2023-05-07T09:13:21;2.10;;;1.90;;
17570;SDS011;8903;52.220;20.978;2023-05-07T09:15:49;4.00;;;2.50;;
17570;SDS011;8903;52.220;20.978;2023-05-07T09:18:17;2.93;;;1.60;;
17570;SDS011;8903;52.220;20.978;2023-05-07T09:20:48;2.87;;;2.40;;
17570;SDS011;8903;52.220;20.978;2023-05-07T09:23:18;1.60;;;1.50;;
17570;SDS011;8903;52.220;20.978;2023-05-07T09:25:46;4.50;;;2.70;;
17570;SDS011;8903;52.220;20.978;2023-05-07T09:28:20;2.30;;;2.00;;
17570;SDS011;8903;52.220;20.978;2023-05-07T09:30:47;3.10;;;1.63;;
17570;SDS011;8903;52.220;20.978;2023-05-07T09:33:14;1.70;;;1.60;;
17570;SDS011;8903;52.220;20.978;2023-05-07T09:35:48;3.53;;;1.90;;
17570;SDS011;8903;52.220;20.978;2023-05-07T09:38:19;4.00;;;1.50;;
17570;SDS011;8903;52.220;20.978;2023-05-07T09:40:56;1.80;;;1.60;;
17570;SDS011;8903;52.220;20.978;2023-05-07T09:43:34;2.23;;;2.10;;
17570;SDS011;8903;52.220;20.978;2023-05-07T09:46:06;2.47;;;2.10;;
17570;SDS011;8903;52.220;20.978;2023-05-07T09:48:36;2.53;;;2.10;;
17570;SDS011;8903;52.220;20.978;2023-05-07T09:51:08;3.30;;;2.30;;
17570;SDS011;8903;52.220;20.978;2023-05-07T09:53:48;2.10;;;2.00;;
17570;SDS011;8903;52.220;20.978;2023-05-07T09:56:16;4.23;;;2.03;;
17570;SDS011;8903;52.220;20.978;2023-05-07T09:58:45;4.00;;;1.97;;
17570;SDS011;8903;52.220;20.978;2023-05-07T10:01:13;2.33;;;1.80;;
17570;SDS011;8903;52.220;20.978;2023-05-07T10:03:44;1.77;;;1.67;;
17570;SDS011;8903;52.220;20.978;2023-05-07T10:06:14;1.63;;;1.53;;
17570;SDS011;8903;52.220;20.978;2023-05-07T10:08:42;1.70;;;1.60;;
17570;SDS011;8903;52.220;20.978;2023-05-07T10:11:10;1.80;;;1.70;;
17570;SDS011;8903;52.220;20.978;2023-05-07T10:13:38;1.47;;;1.37;;
17570;SDS011;8903;52.220;20.978;2023-05-07T10:16:08;2.80;;;1.60;;
17570;SDS011;8903;52.220;20.978;2023-05-07T10:18:41;1.97;;;1.37;;
17570;SDS011;8903;52.220;20.978;2023-05-07T10:21:17;4.47;;;2.30;;
17570;SDS011;8903;52.220;20.978;2023-05-07T10:23:49;2.53;;;1.90;;
17570;SDS011;8903;52.220;20.978;2023-05-07T10:26:19;3.47;;;2.10;;
17570;SDS011;8903;52.220;20.978;2023-05-07T10:28:49;3.00;;;1.93;;
17570;SDS011;8903;52.220;20.978;2023-05-07T10:31:30;2.73;;;2.23;;
17570;SDS011;8903;52.220;20.978;2023-05-07T10:34:13;2.70;;;1.43;;
17570;SDS011;8903;52.220;20.978;2023-05-07T10:36:45;1.77;;;1.67;;
17570;SDS011;8903;52.220;20.978;2023-05-07T10:39:13;2.07;;;1.57;;
17570;SDS011;8903;52.220;20.978;2023-05-07T10:41:40;3.50;;;1.30;;
17570;SDS011;8903;52.220;20.978;2023-05-07T10:44:09;2.30;;;1.90;;
17570;SDS011;8903;52.220;20.978;2023-05-07T10:46:36;2.57;;;1.47;;
17570;SDS011;8903;52.220;20.978;2023-05-07T10:49:14;1.63;;;1.53;;
17570;SDS011;8903;52.220;20.978;2023-05-07T10:58:22;1.67;;;1.30;;
17570;SDS011;8903;52.220;20.978;2023-05-07T11:00:56;2.50;;;1.50;;
17570;SDS011;8903;52.220;20.978;2023-05-07T11:03:29;5.07;;;2.23;;
17570;SDS011;8903;52.220;20.978;2023-05-07T11:06:10;3.87;;;2.30;;
17570;SDS011;8903;52.220;20.978;2023-05-07T11:08:54;1.80;;;1.53;;
17570;SDS011;8903;52.220;20.978;2023-05-07T11:11:43;3.13;;;1.80;;
17570;SDS011;8903;52.220;20.978;2023-05-07T11:14:30;1.63;;;1.30;;
17570;SDS011;8903;52.220;20.978;2023-05-07T11:17:13;2.20;;;1.47;;
17570;SDS011;8903;52.220;20.978;2023-05-07T11:19:49;1.83;;;1.60;;
17570;SDS011;8903;52.220;20.978;2023-05-07T11:22:36;2.00;;;1.77;;
17570;SDS011;8903;52.220;20.978;2023-05-07T11:25:21;2.07;;;1.50;;
17570;SDS011;8903;52.220;20.978;2023-05-07T11:27:55;2.87;;;1.57;;
17570;SDS011;8903;52.220;20.978;2023-05-07T11:30:23;3.43;;;1.77;;
17570;SDS011;8903;52.220;20.978;2023-05-07T11:32:51;2.40;;;1.80;;
17570;SDS011;8903;52.220;20.978;2023-05-07T11:35:19;2.37;;;1.97;;
17570;SDS011;8903;52.220;20.978;2023-05-07T11:37:50;1.63;;;1.53;;
17570;SDS011;8903;52.220;20.978;2023-05-07T11:40:28;2.37;;;1.87;;
17570;SDS011;8903;52.220;20.978;2023-05-07T11:42:55;2.33;;;2.10;;
17570;SDS011;8903;52.220;20.978;2023-05-07T11:45:22;1.73;;;1.63;;
17570;SDS011;8903;52.220;20.978;2023-05-07T11:47:51;4.30;;;1.87;;
17570;SDS011;8903;52.220;20.978;2023-05-07T11:50:18;2.40;;;1.37;;
17570;SDS011;8903;52.220;20.978;2023-05-07T11:52:50;3.00;;;1.93;;
17570;SDS011;8903;52.220;20.978;2023-05-07T11:55:17;4.30;;;1.50;;
17570;SDS011;8903;52.220;20.978;2023-05-07T11:57:46;1.73;;;1.63;;
17570;SDS011;8903;52.220;20.978;2023-05-07T12:00:15;2.17;;;1.67;;
17570;SDS011;8903;52.220;20.978;2023-05-07T12:02:43;2.00;;;1.47;;
17570;SDS011;8903;52.220;20.978;2023-05-07T12:05:11;1.87;;;1.70;;
17570;SDS011;8903;52.220;20.978;2023-05-07T12:07:38;1.73;;;1.63;;
17570;SDS011;8903;52.220;20.978;2023-05-07T12:10:05;2.17;;;1.97;;
17570;SDS011;8903;52.220;20.978;2023-05-07T12:12:37;2.43;;;1.80;;
17570;SDS011;8903;52.220;20.978;2023-05-07T12:15:07;2.40;;;1.90;;
17570;SDS011;8903;52.220;20.978;2023-05-07T12:17:35;3.00;;;1.50;;
17570;SDS011;8903;52.220;20.978;2023-05-07T12:20:03;1.80;;;1.37;;
17570;SDS011;8903;52.220;20.978;2023-05-07T12:22:31;2.40;;;1.33;;
17570;SDS011;8903;52.220;20.978;2023-05-07T12:24:58;1.23;;;1.13;;
17570;SDS011;8903;52.220;20.978;2023-05-07T12:27:25;2.70;;;1.83;;
17570;SDS011;8903;52.220;20.978;2023-05-07T12:29:52;2.60;;;1.47;;
17570;SDS011;8903;52.220;20.978;2023-05-07T12:32:21;4.23;;;1.50;;
17570;SDS011;8903;52.220;20.978;2023-05-07T12:34:49;2.03;;;1.43;;
17570;SDS011;8903;52.220;20.978;2023-05-07T12:37:22;1.93;;;1.63;;
17570;SDS011;8903;52.220;20.978;2023-05-07T12:40:03;3.30;;;1.97;;
17570;SDS011;8903;52.220;20.978;2023-05-07T12:42:32;1.73;;;1.63;;
17570;SDS011;8903;52.220;20.978;2023-05-07T12:45:07;1.97;;;1.17;;
17570;SDS011;8903;52.220;20.978;2023-05-07T12:47:36;2.13;;;1.70;;
17570;SDS011;8903;52.220;20.978;2023-05-07T12:50:04;2.17;;;1.30;;
17570;SDS011;8903;52.220;20.978;2023-05-07T12:52:32;3.93;;;1.90;;
17570;SDS011;8903;52.220;20.978;2023-05-07T12:55:04;1.90;;;1.80;;
17570;SDS011;8903;52.220;20.978;2023-05-07T12:57:37;1.93;;;1.63;;
17570;SDS011;8903;52.220;20.978;2023-05-07T13:00:05;3.13;;;1.60;;
17570;SDS011;8903;52.220;20.978;2023-05-07T13:02:33;3.37;;;1.60;;
17570;SDS011;8903;52.220;20.978;2023-05-07T13:05:04;3.27;;;1.70;;
17570;SDS011;8903;52.220;20.978;2023-05-07T13:07:31;7.70;;;3.10;;
17570;SDS011;8903;52.220;20.978;2023-05-07T13:09:58;1.70;;;1.60;;
17570;SDS011;8903;52.220;20.978;2023-05-07T13:12:25;2.33;;;1.60;;
17570;SDS011;8903;52.220;20.978;2023-05-07T13:14:52;1.80;;;1.50;;
17570;SDS011;8903;52.220;20.978;2023-05-07T13:17:19;1.70;;;1.60;;
17570;SDS011;8903;52.220;20.978;2023-05-07T13:19:47;3.10;;;1.73;;
17570;SDS011;8903;52.220;20.978;2023-05-07T13:22:15;1.80;;;1.57;;
17570;SDS011;8903;52.220;20.978;2023-05-07T13:24:42;1.70;;;1.60;;
17570;SDS011;8903;52.220;20.978;2023-05-07T13:27:09;1.80;;;1.37;;
17570;SDS011;8903;52.220;20.978;2023-05-07T13:29:36;2.83;;;1.33;;
17570;SDS011;8903;52.220;20.978;2023-05-07T13:32:03;1.63;;;1.53;;
17570;SDS011;8903;52.220;20.978;2023-05-07T13:34:30;1.40;;;1.30;;
17570;SDS011;8903;52.220;20.978;2023-05-07T13:36:58;1.57;;;1.40;;
17570;SDS011;8903;52.220;20.978;2023-05-07T13:39:26;2.00;;;1.67;;
17570;SDS011;8903;52.220;20.978;2023-05-07T13:41:52;1.13;;;1.00;;
17570;SDS011;8903;52.220;20.978;2023-05-07T13:44:19;4.03;;;1.40;;
17570;SDS011;8903;52.220;20.978;2023-05-07T13:46:46;2.03;;;1.40;;
17570;SDS011;8903;52.220;20.978;2023-05-07T13:49:13;2.50;;;1.80;;
17570;SDS011;8903;52.220;20.978;2023-05-07T13:51:40;1.00;;;0.80;;
17570;SDS011;8903;52.220;20.978;2023-05-07T13:54:09;1.77;;;1.67;;
17570;SDS011;8903;52.220;20.978;2023-05-07T13:56:36;1.40;;;1.03;;
17570;SDS011;8903;52.220;20.978;2023-05-07T13:59:03;2.70;;;1.17;;
17570;SDS011;8903;52.220;20.978;2023-05-07T14:01:30;3.43;;;1.70;;
17570;SDS011;8903;52.220;20.978;2023-05-07T14:03:57;1.00;;;0.90;;
17570;SDS011;8903;52.220;20.978;2023-05-07T14:06:24;2.10;;;1.40;;
17570;SDS011;8903;52.220;20.978;2023-05-07T14:08:51;4.80;;;1.27;;
17570;SDS011;8903;52.220;20.978;2023-05-07T14:11:20;3.50;;;1.53;;
17570;SDS011;8903;52.220;20.978;2023-05-07T14:13:47;1.60;;;1.50;;
17570;SDS011;8903;52.220;20.978;2023-05-07T14:16:14;2.20;;;1.03;;
17570;SDS011;8903;52.220;20.978;2023-05-07T14:18:41;1.63;;;1.43;;
17570;SDS011;8903;52.220;20.978;2023-05-07T14:21:08;3.40;;;1.33;;
17570;SDS011;8903;52.220;20.978;2023-05-07T14:23:35;1.50;;;1.10;;
17570;SDS011;8903;52.220;20.978;2023-05-07T14:26:02;1.90;;;1.80;;
17570;SDS011;8903;52.220;20.978;2023-05-07T14:28:32;3.60;;;1.17;;
17570;SDS011;8903;52.220;20.978;2023-05-07T14:30:59;2.63;;;1.40;;
17570;SDS011;8903;52.220;20.978;2023-05-07T14:33:26;1.47;;;1.23;;
17570;SDS011;8903;52.220;20.978;2023-05-07T14:35:52;1.70;;;1.10;;
17570;SDS011;8903;52.220;20.978;2023-05-07T14:38:20;1.80;;;1.70;;
17570;SDS011;8903;52.220;20.978;2023-05-07T14:40:47;1.90;;;1.40;;
17570;SDS011;8903;52.220;20.978;2023-05-07T14:43:13;2.60;;;1.70;;
17570;SDS011;8903;52.220;20.978;2023-05-07T14:45:42;1.50;;;1.33;;
17570;SDS011;8903;52.220;20.978;2023-05-07T14:48:09;3.40;;;1.73;;
17570;SDS011;8903;52.220;20.978;2023-05-07T14:50:40;3.10;;;1.30;;
17570;SDS011;8903;52.220;20.978;2023-05-07T14:53:07;6.30;;;1.47;;
17570;SDS011;8903;52.220;20.978;2023-05-07T14:55:34;1.30;;;1.20;;
17570;SDS011;8903;52.220;20.978;2023-05-07T14:58:01;1.70;;;1.50;;
17570;SDS011;8903;52.220;20.978;2023-05-07T15:00:28;1.53;;;1.30;;
17570;SDS011;8903;52.220;20.978;2023-05-07T15:02:56;2.30;;;1.60;;
17570;SDS011;8903;52.220;20.978;2023-05-07T15:05:33;2.97;;;1.70;;